map of KFIG home
KFIG - Airport
Location
City:  Clearfield, Pennsylvania, United States
Name:Clearfield-Lawrence Airport
ICAO:KFIG
FAA LID:FIG

Details
Type:Airport (Airfield)
Use:Public/Civil
Latitude:4102'57"N (41.049134)
Longitude:7824'55"W (-78.415157)
Datum:WGS 1984
Elevation:1516 ft (462 m)
Variation:10.47W (WMM2015 magnetic declination)
-0.00 annual change
Runways:1
Longest:4499 × 75 ft (1371 × 23 m), paved

Time
Time Zone:UTC-5 (DST-4)
Local Time:

Weather
METAR:KFIG 221554Z AUTO 23013G19KT 10SM CLR 08/00 A3014 RMK AO2 SLP217 T00830000

Related Locations
Nearby:
Farthest:YAUG: 11564 mi / 18611 km
Augusta [Augusta Airport], WA, AU

Find:

   beyond  
but within

Other Information
Maps:
NOTAMs:
Links:
Sources:

  
  • flag of United States
  • flag of Pennsylvania
  

Sectional Chart

Flight Planning
at skyvector.com

Satellite Image

Google Maps Satellite view

 

Copyright © 2004-2018 Karl L. Swartz. All rights reserved.
The Great Circle Mapper name and logo are trademarks of the Great Circle Mapper.
All other trademarks mentioned herein belong to their respective owners.
Please see credits for attibutions and further copyright information.

  Follow gcmap on Facebook Follow gcmap on Twitter Follow gcmap on Google+ GCmap on LinkedIn

hCard Microformat

Geo Microformat